Pagina principală
METAR-TAF:

METAR-TAF

Aeroporturi :

Futuna, Franța

Latitudine: 14-19S, longitudine: 178-07W, elevație: 6 m

METAR: lipsă

Ora: 03:28 (15:28 UTC)

Prognoză

Raportul a fost făcut în urmă cu 4 ore și 28 de minute, la 11:00 UTC
Prognoză valabilă de la 18 ora 12 UTC la 19 ora 12 UTC
Vânt 10 kt de la Sud-est
Vizibilitate de 10 km sau mai mult
Nori împrăștiați la o înălțime de 2500 picior
Nori împrăștiați la o înălțime de 5000 picior
Probabilitate 30% :
Temporar
de la 18 ora 18 UTC la 18 ora 24 UTC
Nori fragmentați la o înălțime de 1400 picior
Nori puțini la o înălțime de 1800 picior, Cumulus congestus.
averse de ploaie

TAF: NLWF 181100Z 1812/1912 14010KT 9999 SCT025 SCT050 PROB30 TEMPO 1818/1824 SHRA BKN014 FEW018TCU

Observații și prognoze meteo pentru peste 4.000 de aeroporturi (rapoarte METAR și TAF).

Stațiile disponibile sunt reprezentate pe hartă prin puncte galbene și roșii.

Țineți indicatorul mouse-ului pe punctul dorit pentru a vedea denumirea stației.

Apoi, faceți clic pentru a vedea observațiile și prognozele meteorologice.

Pentru a schimba harta: Pentru mărire, faceți clic pe butoanele verzi cu cruce neagră; pentru micșorare, pe butonul verde cu o liniuță; pentru hărți învecinate, pe săgețile verzi.


METAR-TAF: